createdAt,value
2022-09-28T00:00:26.223Z,13.30
2022-09-28T00:03:14.270Z,13.29
2022-09-28T00:05:42.462Z,13.26
2022-09-28T00:08:13.740Z,13.22
2022-09-28T00:10:43.491Z,13.17
2022-09-28T00:13:11.596Z,13.13
2022-09-28T00:16:10.870Z,13.08
2022-09-28T00:18:39.177Z,13.06
2022-09-28T00:21:13.126Z,13.03
2022-09-28T00:24:01.160Z,12.98
2022-09-28T00:26:31.427Z,12.93
2022-09-28T00:29:01.779Z,12.89
2022-09-28T00:31:34.758Z,12.85
2022-09-28T00:34:05.046Z,12.80
2022-09-28T00:36:36.052Z,12.73
2022-09-28T00:39:07.358Z,12.68
2022-09-28T00:41:43.303Z,12.65
2022-09-28T00:44:27.247Z,12.62
2022-09-28T00:47:31.816Z,12.61
2022-09-28T00:50:42.438Z,12.60
2022-09-28T00:53:13.778Z,12.64
2022-09-28T00:55:58.265Z,12.68
2022-09-28T00:58:36.626Z,12.73
2022-09-28T01:04:03.240Z,12.85
2022-09-28T01:06:36.289Z,12.87
2022-09-28T01:09:08.914Z,12.91
2022-09-28T01:11:39.538Z,12.93
2022-09-28T01:14:14.094Z,12.94
2022-09-28T01:17:05.467Z,12.98
2022-09-28T01:20:13.449Z,12.93
2022-09-28T01:23:17.485Z,12.99
2022-09-28T01:25:59.913Z,12.99
2022-09-28T01:28:29.731Z,12.98
2022-09-28T01:31:18.106Z,12.98
2022-09-28T01:34:00.722Z,12.97
2022-09-28T01:36:36.916Z,12.95
2022-09-28T01:39:15.293Z,12.94
2022-09-28T01:41:52.535Z,12.92
2022-09-28T01:44:23.420Z,12.90
2022-09-28T01:46:59.419Z,12.89
2022-09-28T01:49:36.364Z,12.90
2022-09-28T01:52:13.938Z,12.91
2022-09-28T01:54:52.099Z,12.95
2022-09-28T01:57:23.994Z,12.98
2022-09-28T02:00:03.293Z,13.00
2022-09-28T02:02:55.087Z,13.02
2022-09-28T02:05:37.250Z,13.04
2022-09-28T02:08:10.250Z,13.05
2022-09-28T02:10:50.083Z,13.05
2022-09-28T02:13:34.127Z,13.02
2022-09-28T02:16:43.618Z,13.02
2022-09-28T02:19:21.434Z,13.02
2022-09-28T02:22:14.259Z,13.02
2022-09-28T02:25:13.419Z,13.00
2022-09-28T02:27:52.077Z,13.00
2022-09-28T02:30:20.618Z,12.99
2022-09-28T02:32:57.201Z,12.98
2022-09-28T02:35:27.590Z,13.02
2022-09-28T02:37:56.711Z,13.04
2022-09-28T02:40:40.436Z,13.01
2022-09-28T02:43:31.223Z,13.03
2022-09-28T02:46:10.360Z,13.06
2022-09-28T02:49:20.904Z,12.97
2022-09-28T02:51:50.279Z,13.00
2022-09-28T02:54:20.898Z,13.01
2022-09-28T02:57:02.549Z,13.02
2022-09-28T02:59:43.110Z,13.01
2022-09-28T03:02:26.240Z,13.02
2022-09-28T03:05:03.782Z,13.01
2022-09-28T03:07:57.440Z,13.00
2022-09-28T03:10:31.224Z,12.96
2022-09-28T03:13:00.136Z,12.93
2022-09-28T03:15:32.005Z,12.90
2022-09-28T03:18:11.862Z,12.86
2022-09-28T03:20:39.987Z,12.83
2022-09-28T03:23:25.453Z,12.82
2022-09-28T03:25:54.607Z,12.82
2022-09-28T03:28:23.450Z,12.83
2022-09-28T03:30:51.852Z,12.84
2022-09-28T03:33:20.315Z,12.85
2022-09-28T03:35:53.561Z,12.86
2022-09-28T03:38:25.609Z,12.84
2022-09-28T03:40:58.927Z,12.83
2022-09-28T03:43:29.947Z,12.84
2022-09-28T03:46:10.471Z,12.84
2022-09-28T03:48:43.190Z,12.83
2022-09-28T03:51:16.284Z,12.81
2022-09-28T03:53:45.173Z,12.79
2022-09-28T03:56:15.692Z,12.77
2022-09-28T03:58:45.870Z,12.74
2022-09-28T04:01:18.504Z,12.71
2022-09-28T04:03:52.928Z,12.72
2022-09-28T04:06:21.090Z,12.70
2022-09-28T04:08:49.321Z,12.62
2022-09-28T04:11:43.033Z,12.61
2022-09-28T04:14:20.276Z,12.61
2022-09-28T04:16:49.071Z,12.53
2022-09-28T04:19:40.669Z,12.48
2022-09-28T04:22:19.450Z,12.49
2022-09-28T04:24:53.214Z,12.48
2022-09-28T04:27:42.173Z,12.51
2022-09-28T04:30:11.426Z,12.53
2022-09-28T04:32:41.970Z,12.53
2022-09-28T04:35:12.155Z,12.46
2022-09-28T04:37:41.736Z,12.44
2022-09-28T04:40:10.355Z,12.41
2022-09-28T04:42:39.181Z,12.38
2022-09-28T04:45:08.278Z,12.34
2022-09-28T04:47:45.479Z,12.33
2022-09-28T04:50:29.072Z,12.32
2022-09-28T04:53:19.923Z,12.35
2022-09-28T04:56:04.076Z,12.38
2022-09-28T04:58:34.460Z,12.39
2022-09-28T05:01:07.018Z,12.42
2022-09-28T05:03:54.923Z,12.48
2022-09-28T05:06:33.830Z,12.54
2022-09-28T05:09:09.826Z,12.57
2022-09-28T05:11:38.297Z,12.59
2022-09-28T05:14:12.292Z,12.60
2022-09-28T05:16:42.948Z,12.58
2022-09-28T05:19:23.331Z,12.58
2022-09-28T05:21:52.647Z,12.64
2022-09-28T05:24:20.795Z,12.68
2022-09-28T05:26:52.191Z,12.70
2022-09-28T05:29:20.778Z,12.72
2022-09-28T05:31:49.449Z,12.77
2022-09-28T05:34:38.739Z,12.78
2022-09-28T05:37:07.110Z,12.81
2022-09-28T05:39:39.497Z,12.84
2022-09-28T05:42:18.911Z,12.89
2022-09-28T05:44:47.255Z,12.98
2022-09-28T05:47:16.010Z,13.07
2022-09-28T05:49:44.509Z,13.16
2022-09-28T05:52:14.313Z,13.27
2022-09-28T05:54:46.980Z,13.36
2022-09-28T05:57:15.845Z,13.42
2022-09-28T05:59:43.924Z,13.46
2022-09-28T06:02:12.465Z,13.50
2022-09-28T06:04:43.711Z,13.55
2022-09-28T06:07:12.607Z,13.60
2022-09-28T06:09:41.072Z,13.52
2022-09-28T06:12:17.188Z,13.49
2022-09-28T06:14:49.512Z,13.53
2022-09-28T06:17:18.365Z,13.46
2022-09-28T06:19:52.417Z,13.54
2022-09-28T06:22:30.645Z,13.57
2022-09-28T06:25:08.504Z,13.68
2022-09-28T06:27:37.400Z,13.79
2022-09-28T06:30:06.176Z,13.92
2022-09-28T06:32:34.626Z,14.06
2022-09-28T06:35:02.835Z,14.10
2022-09-28T06:37:33.235Z,14.17
2022-09-28T06:40:02.729Z,14.26
2022-09-28T06:42:31.875Z,14.36
2022-09-28T06:45:53.277Z,14.47
2022-09-28T06:48:26.374Z,14.55
2022-09-28T06:50:57.841Z,14.59
2022-09-28T06:53:28.703Z,14.64
2022-09-28T06:56:01.019Z,14.74
2022-09-28T06:58:30.546Z,14.83
2022-09-28T07:01:18.934Z,14.96
2022-09-28T07:03:57.969Z,15.02
2022-09-28T07:07:01.465Z,15.10
2022-09-28T07:09:52.348Z,15.19
2022-09-28T07:12:32.417Z,15.26
2022-09-28T07:15:04.047Z,15.36
2022-09-28T07:17:41.976Z,15.48
2022-09-28T07:20:21.089Z,15.62
2022-09-28T07:23:15.821Z,15.77
2022-09-28T07:26:09.083Z,15.98
2022-09-28T07:28:53.179Z,16.09
2022-09-28T07:32:01.635Z,16.16
2022-09-28T07:34:46.451Z,16.23
2022-09-28T07:37:58.894Z,16.25
2022-09-28T07:40:58.261Z,16.22
2022-09-28T07:43:27.260Z,16.24
2022-09-28T07:45:55.980Z,16.22
2022-09-28T07:48:25.487Z,16.17
2022-09-28T07:51:13.884Z,16.05
2022-09-28T08:07:03.358Z,16.73
2022-09-28T08:09:32.987Z,17.13
2022-09-28T08:12:20.742Z,17.31
2022-09-28T08:15:00.806Z,17.42
2022-09-28T08:17:49.597Z,17.49
2022-09-28T08:20:38.813Z,17.59
2022-09-28T08:23:08.773Z,17.77
2022-09-28T08:25:38.375Z,17.93
2022-09-28T08:28:07.528Z,17.97
2022-09-28T08:30:42.857Z,17.94
2022-09-28T08:33:37.325Z,17.93
2022-09-28T08:36:27.804Z,18.00
2022-09-28T08:38:56.288Z,18.13
2022-09-28T08:41:43.606Z,18.32
2022-09-28T08:44:40.336Z,18.48
2022-09-28T08:47:53.439Z,18.63
2022-09-28T08:50:54.568Z,18.81
2022-09-28T08:53:57.741Z,19.00
2022-09-28T08:57:02.444Z,19.10
2022-09-28T08:59:53.175Z,19.19
2022-09-28T09:02:34.685Z,19.28
2022-09-28T09:05:20.050Z,19.36
2022-09-28T09:08:39.343Z,19.48
2022-09-28T09:11:22.572Z,19.61
2022-09-28T09:14:11.930Z,19.65
2022-09-28T09:17:00.657Z,19.73
2022-09-28T09:20:13.688Z,19.73
2022-09-28T09:23:01.794Z,19.64
2022-09-28T09:25:55.862Z,19.69
2022-09-28T09:28:56.800Z,19.82
2022-09-28T09:31:47.620Z,19.90
2022-09-28T09:34:18.600Z,19.82
2022-09-28T09:36:58.704Z,19.75
2022-09-28T09:40:26.550Z,19.66
2022-09-28T09:43:31.685Z,19.86
2022-09-28T09:46:42.082Z,19.89
2022-09-28T09:49:34.810Z,19.77
2022-09-28T09:52:26.662Z,19.73
2022-09-28T09:55:17.104Z,19.64
2022-09-28T09:58:03.362Z,19.71
2022-09-28T10:00:40.547Z,19.76
2022-09-28T10:03:29.593Z,19.88
2022-09-28T10:06:12.910Z,20.14
2022-09-28T10:08:46.254Z,20.29
2022-09-28T10:11:25.816Z,20.41
2022-09-28T10:13:55.462Z,20.62
2022-09-28T10:16:43.257Z,20.87
2022-09-28T10:19:19.252Z,20.98
2022-09-28T10:22:26.335Z,20.87
2022-09-28T10:24:57.628Z,20.73
2022-09-28T10:27:33.858Z,20.56
2022-09-28T10:30:11.224Z,20.68
2022-09-28T10:32:46.213Z,20.79
2022-09-28T10:35:20.521Z,20.88
2022-09-28T10:38:05.525Z,21.00
2022-09-28T10:40:55.356Z,21.11
2022-09-28T10:44:06.530Z,21.25
2022-09-28T10:47:10.073Z,21.41
2022-09-28T10:49:47.417Z,21.48
2022-09-28T10:52:37.477Z,21.53
2022-09-28T10:55:20.803Z,21.63
2022-09-28T10:57:50.540Z,21.61
2022-09-28T11:00:44.849Z,21.52
2022-09-28T11:03:26.772Z,21.50
2022-09-28T11:06:08.058Z,21.50
2022-09-28T11:08:42.063Z,21.45
2022-09-28T11:11:17.022Z,21.38
2022-09-28T11:14:03.879Z,21.23
2022-09-28T11:16:36.734Z,21.33
2022-09-28T11:19:30.845Z,21.41
2022-09-28T11:22:21.148Z,21.60
2022-09-28T11:24:51.236Z,21.81
2022-09-28T11:27:22.623Z,21.83
2022-09-28T11:30:00.827Z,21.84
2022-09-28T11:32:44.839Z,21.79
2022-09-28T11:35:44.350Z,21.77
2022-09-28T11:38:40.806Z,21.81
2022-09-28T11:41:46.782Z,21.88
2022-09-28T11:44:39.889Z,22.02
2022-09-28T11:47:34.941Z,22.24
2022-09-28T11:50:30.640Z,22.45
2022-09-28T11:53:34.425Z,22.35
2022-09-28T11:56:09.071Z,22.35
2022-09-28T11:58:49.254Z,22.36
2022-09-28T12:01:56.712Z,22.31
2022-09-28T12:04:46.736Z,22.18
2022-09-28T12:07:25.562Z,22.03
2022-09-28T12:10:00.465Z,21.92
2022-09-28T12:12:53.639Z,21.82
2022-09-28T12:15:27.242Z,21.68
2022-09-28T12:18:02.175Z,21.60
2022-09-28T12:20:39.437Z,21.47
2022-09-28T12:23:15.668Z,21.28
2022-09-28T12:25:48.357Z,21.09
2022-09-28T12:28:19.568Z,20.89
2022-09-28T12:30:49.467Z,20.70
2022-09-28T12:33:17.941Z,20.57
2022-09-28T12:35:50.477Z,20.47
2022-09-28T12:39:17.534Z,20.34
2022-09-28T12:42:00.204Z,20.22
2022-09-28T12:44:59.475Z,20.09
2022-09-28T12:47:46.698Z,19.97
2022-09-28T12:50:38.602Z,19.85
2022-09-28T12:53:20.318Z,19.75
2022-09-28T12:56:03.770Z,19.68
2022-09-28T12:58:44.386Z,19.63
2022-09-28T13:01:31.051Z,19.59
2022-09-28T13:04:08.309Z,19.58
2022-09-28T13:07:03.463Z,19.60
2022-09-28T13:09:38.827Z,19.67
2022-09-28T13:12:32.047Z,19.74
2022-09-28T13:15:32.336Z,19.85
2022-09-28T13:18:35.448Z,19.97
2022-09-28T13:21:03.781Z,20.12
2022-09-28T13:23:37.573Z,20.23
2022-09-28T13:26:28.137Z,20.31
2022-09-28T13:29:05.257Z,20.39
2022-09-28T13:31:37.178Z,20.46
2022-09-28T13:34:20.573Z,20.49
2022-09-28T13:37:16.971Z,20.48
2022-09-28T13:39:44.946Z,20.47
2022-09-28T13:42:27.726Z,20.41
2022-09-28T13:45:22.247Z,20.29
2022-09-28T13:47:51.835Z,20.18
2022-09-28T13:50:53.225Z,20.12
2022-09-28T13:53:36.285Z,20.06
2022-09-28T13:56:22.870Z,19.99
2022-09-28T13:58:53.994Z,19.95
2022-09-28T14:01:37.353Z,19.88
2022-09-28T14:04:15.812Z,19.77
2022-09-28T14:07:08.777Z,19.67
2022-09-28T14:10:18.589Z,19.57
2022-09-28T14:12:55.138Z,19.45
2022-09-28T14:15:29.629Z,19.36
2022-09-28T14:18:22.098Z,19.26
2022-09-28T14:21:02.641Z,19.12
2022-09-28T14:23:58.944Z,19.02
2022-09-28T14:26:27.989Z,18.94
2022-09-28T14:29:29.338Z,18.84
2022-09-28T14:31:59.289Z,18.74
2022-09-28T14:34:34.128Z,18.64
2022-09-28T14:37:24.160Z,18.59
2022-09-28T14:40:11.001Z,18.54
2022-09-28T14:42:40.266Z,18.48
2022-09-28T14:45:08.401Z,18.43
2022-09-28T14:47:44.878Z,18.39
2022-09-28T14:50:27.779Z,18.35
2022-09-28T14:53:12.452Z,18.27
2022-09-28T14:55:57.844Z,18.23
2022-09-28T14:58:29.905Z,18.17
2022-09-28T15:01:16.156Z,18.14
2022-09-28T15:03:48.925Z,18.10
2022-09-28T15:06:19.930Z,18.05
2022-09-28T15:08:48.147Z,18.02
2022-09-28T15:11:21.582Z,18.02
2022-09-28T15:13:53.980Z,18.03
2022-09-28T15:16:25.115Z,18.04
2022-09-28T15:19:21.199Z,18.02
2022-09-28T15:21:51.220Z,17.99
2022-09-28T15:24:31.933Z,17.96
2022-09-28T15:27:19.215Z,17.93
2022-09-28T15:30:03.570Z,17.88
2022-09-28T15:32:32.305Z,17.83
2022-09-28T15:35:17.227Z,17.78
2022-09-28T15:37:45.424Z,17.77
2022-09-28T15:40:17.255Z,17.76
2022-09-28T15:42:46.249Z,17.72
2022-09-28T15:45:14.296Z,17.69
2022-09-28T15:47:43.821Z,17.65
2022-09-28T15:50:27.048Z,17.60
2022-09-28T15:53:01.671Z,17.51
2022-09-28T15:55:42.495Z,17.42
2022-09-28T15:58:22.030Z,17.31
2022-09-28T16:01:12.206Z,17.22
2022-09-28T16:03:40.404Z,17.11
2022-09-28T16:06:10.623Z,16.96
2022-09-28T16:08:43.383Z,16.77
2022-09-28T16:11:28.128Z,16.59
2022-09-28T16:14:01.845Z,16.39
2022-09-28T16:16:35.485Z,16.22
2022-09-28T16:19:04.636Z,16.06
2022-09-28T16:22:00.093Z,15.91
2022-09-28T16:24:39.147Z,15.74
2022-09-28T16:27:23.622Z,15.61
2022-09-28T16:30:10.564Z,15.45
2022-09-28T16:33:11.886Z,15.31
2022-09-28T16:35:42.628Z,15.19
2022-09-28T16:38:15.892Z,15.10
2022-09-28T16:40:48.060Z,15.01
2022-09-28T16:43:27.845Z,14.91
2022-09-28T16:46:07.387Z,14.80
2022-09-28T16:48:40.608Z,14.69
2022-09-28T16:51:08.748Z,14.60
2022-09-28T16:53:55.483Z,14.49
2022-09-28T16:56:23.679Z,14.36
2022-09-28T16:58:51.738Z,14.24
2022-09-28T17:01:21.251Z,14.12
2022-09-28T17:03:50.362Z,14.00
2022-09-28T17:06:20.731Z,13.87
2022-09-28T17:08:48.606Z,13.78
2022-09-28T17:11:24.250Z,13.70
2022-09-28T17:14:03.134Z,13.59
2022-09-28T17:19:24.474Z,13.45
2022-09-28T17:21:53.559Z,13.35
2022-09-28T17:24:21.907Z,13.27
2022-09-28T17:26:52.255Z,13.19
2022-09-28T17:29:20.378Z,13.10
2022-09-28T17:31:48.563Z,13.04
2022-09-28T17:34:17.325Z,12.96
2022-09-28T17:36:45.920Z,12.88
2022-09-28T17:39:19.266Z,12.83
2022-09-28T17:41:47.822Z,12.78
2022-09-28T17:44:22.013Z,12.72
2022-09-28T17:46:53.517Z,12.68
2022-09-28T17:49:21.820Z,12.63
2022-09-28T17:51:54.906Z,12.61
2022-09-28T17:54:23.366Z,12.60
2022-09-28T17:56:55.012Z,12.58
2022-09-28T17:59:23.875Z,12.56
2022-09-28T18:02:03.414Z,12.55
2022-09-28T18:04:51.862Z,12.56
2022-09-28T18:07:21.538Z,12.57
2022-09-28T18:10:07.272Z,12.56
2022-09-28T18:12:41.106Z,12.57
2022-09-28T18:15:11.090Z,12.58
2022-09-28T18:17:42.754Z,12.59
2022-09-28T18:20:12.923Z,12.61
2022-09-28T18:22:41.532Z,12.63
2022-09-28T18:25:11.230Z,12.63
2022-09-28T18:27:39.533Z,12.63
2022-09-28T18:30:08.189Z,12.64
2022-09-28T18:32:37.489Z,12.67
2022-09-28T18:35:09.396Z,12.70
2022-09-28T18:37:41.833Z,12.75
2022-09-28T18:40:19.366Z,12.80
2022-09-28T18:42:52.473Z,12.83
2022-09-28T18:45:21.945Z,12.83
2022-09-28T18:47:52.549Z,12.83
2022-09-28T18:50:21.362Z,12.81
2022-09-28T18:52:50.726Z,12.79
2022-09-28T18:55:19.578Z,12.77
2022-09-28T18:57:49.546Z,12.75
2022-09-28T19:00:19.997Z,12.74
2022-09-28T19:03:05.722Z,12.71
2022-09-28T19:05:36.550Z,12.69
2022-09-28T19:08:07.538Z,12.66
2022-09-28T19:10:35.973Z,12.65
2022-09-28T19:13:07.055Z,12.65
2022-09-28T19:15:35.546Z,12.64
2022-09-28T19:18:04.864Z,12.63
2022-09-28T19:20:34.328Z,12.61
2022-09-28T19:23:02.756Z,12.59
2022-09-28T19:25:35.241Z,12.57
2022-09-28T19:28:08.626Z,12.57
2022-09-28T19:30:37.706Z,12.56
2022-09-28T19:33:19.536Z,12.59
2022-09-28T19:36:05.640Z,12.64
2022-09-28T19:38:48.083Z,12.69
2022-09-28T19:41:44.476Z,12.72
2022-09-28T19:44:25.381Z,12.76
2022-09-28T19:47:07.821Z,12.80
2022-09-28T19:49:42.630Z,12.82
2022-09-28T19:52:18.743Z,12.87
2022-09-28T19:54:58.087Z,12.91
2022-09-28T19:57:30.859Z,12.91
2022-09-28T20:00:03.884Z,12.92
2022-09-28T20:02:37.568Z,12.91
2022-09-28T20:05:05.814Z,12.91
2022-09-28T20:07:36.323Z,12.90
2022-09-28T20:10:05.455Z,12.89
2022-09-28T20:12:35.896Z,12.89
2022-09-28T20:15:18.826Z,12.91
2022-09-28T20:17:51.329Z,12.94
2022-09-28T20:20:19.818Z,12.96
2022-09-28T20:22:48.636Z,12.98
2022-09-28T20:25:17.081Z,13.00
2022-09-28T20:27:46.276Z,13.02
2022-09-28T20:30:15.411Z,13.03
2022-09-28T20:33:28.537Z,13.08
2022-09-28T20:35:57.978Z,13.07
2022-09-28T20:38:26.374Z,13.08
2022-09-28T20:40:55.163Z,13.08
2022-09-28T20:43:24.523Z,13.08
2022-09-28T20:45:53.105Z,13.10
2022-09-28T20:48:21.531Z,13.11
2022-09-28T20:50:58.796Z,13.11
2022-09-28T20:53:52.721Z,13.13
2022-09-28T20:56:37.928Z,13.14
2022-09-28T20:59:11.859Z,13.15
2022-09-28T21:01:44.177Z,13.16
2022-09-28T21:04:13.064Z,13.20
2022-09-28T21:06:43.276Z,13.20
2022-09-28T21:09:13.621Z,13.23
2022-09-28T21:11:44.204Z,13.24
2022-09-28T21:14:22.462Z,13.25
2022-09-28T21:16:52.878Z,13.27
2022-09-28T21:19:38.700Z,13.27
2022-09-28T21:22:13.646Z,13.28
2022-09-28T21:24:45.674Z,13.29
2022-09-28T21:27:14.022Z,13.29
2022-09-28T21:29:42.518Z,13.29
2022-09-28T21:32:10.989Z,13.28
2022-09-28T21:34:39.644Z,13.29
2022-09-28T21:37:08.586Z,13.29
2022-09-28T21:39:36.671Z,13.29
2022-09-28T21:42:07.016Z,13.28
2022-09-28T21:44:35.238Z,13.29
2022-09-28T21:47:04.133Z,13.28
2022-09-28T21:49:32.801Z,13.27
2022-09-28T21:52:02.249Z,13.27
2022-09-28T21:54:30.459Z,13.28
2022-09-28T21:56:58.872Z,13.29
2022-09-28T21:59:27.580Z,13.31
2022-09-28T22:01:56.758Z,13.33
2022-09-28T22:04:26.574Z,13.36
2022-09-28T22:06:54.963Z,13.40
2022-09-28T22:09:23.086Z,13.41
2022-09-28T22:11:51.864Z,13.42
2022-09-28T22:14:22.649Z,13.43
2022-09-28T22:16:53.761Z,13.47
2022-09-28T22:19:22.130Z,13.46
2022-09-28T22:21:54.021Z,13.47
2022-09-28T22:24:24.007Z,13.50
2022-09-28T22:26:52.195Z,13.52
2022-09-28T22:29:21.846Z,13.53
2022-09-28T22:31:53.057Z,13.53
2022-09-28T22:34:22.014Z,13.53
2022-09-28T22:36:51.954Z,13.53
2022-09-28T22:39:22.737Z,13.53
2022-09-28T22:41:54.747Z,13.52
2022-09-28T22:44:25.866Z,13.53
2022-09-28T22:46:54.858Z,13.53
2022-09-28T22:49:26.861Z,13.53
2022-09-28T22:51:55.421Z,13.52
2022-09-28T22:54:23.690Z,13.52
2022-09-28T22:57:01.971Z,13.50
2022-09-28T22:59:31.920Z,13.49
2022-09-28T23:02:03.353Z,13.49
2022-09-28T23:04:35.593Z,13.50
2022-09-28T23:07:04.419Z,13.51
2022-09-28T23:09:35.416Z,13.51
2022-09-28T23:12:03.865Z,13.52
2022-09-28T23:14:34.668Z,13.53
2022-09-28T23:17:02.746Z,13.53
2022-09-28T23:19:31.598Z,13.54
2022-09-28T23:22:01.714Z,13.53
2022-09-28T23:24:32.514Z,13.51
2022-09-28T23:27:00.632Z,13.51
2022-09-28T23:29:29.545Z,13.51
2022-09-28T23:31:58.324Z,13.49
2022-09-28T23:34:26.838Z,13.47
2022-09-28T23:36:56.892Z,13.45
2022-09-28T23:39:25.120Z,13.43
2022-09-28T23:41:53.909Z,13.41
2022-09-28T23:44:22.185Z,13.37
2022-09-28T23:46:52.568Z,13.34
2022-09-28T23:49:21.266Z,13.34
2022-09-28T23:51:49.530Z,13.29
2022-09-28T23:54:21.213Z,13.26
2022-09-28T23:56:49.652Z,13.23
2022-09-28T23:59:17.954Z,13.23
